createdAt,value
2018-03-26T00:00:19.125Z,6.30
2018-03-26T00:02:47.353Z,6.20
2018-03-26T00:05:14.809Z,6.20
2018-03-26T00:07:42.282Z,6.30
2018-03-26T00:10:09.776Z,6.20
2018-03-26T00:12:38.031Z,6.10
2018-03-26T00:15:05.505Z,6.10
2018-03-26T00:17:32.981Z,6.10
2018-03-26T00:20:01.209Z,6.00
2018-03-26T00:22:28.670Z,6.00
2018-03-26T00:24:56.149Z,6.00
2018-03-26T00:27:23.616Z,5.90
2018-03-26T00:29:51.064Z,5.90
2018-03-26T00:32:18.540Z,5.90
2018-03-26T00:34:46.773Z,5.80
2018-03-26T00:37:14.251Z,5.80
2018-03-26T00:39:41.727Z,5.80
2018-03-26T00:42:09.977Z,5.80
2018-03-26T00:44:37.431Z,5.70
2018-03-26T00:47:04.901Z,5.80
2018-03-26T00:49:32.388Z,5.70
2018-03-26T00:52:00.608Z,5.70
2018-03-26T00:54:28.092Z,5.70
2018-03-26T00:56:55.608Z,5.60
2018-03-26T00:59:23.036Z,5.60
2018-03-26T01:01:51.285Z,5.60
2018-03-26T01:04:18.741Z,5.60
2018-03-26T01:06:46.228Z,5.50
2018-03-26T01:09:13.686Z,5.50
2018-03-26T01:11:41.166Z,5.50
2018-03-26T01:14:08.654Z,5.40
2018-03-26T01:16:36.111Z,5.40
2018-03-26T01:19:03.564Z,5.40
2018-03-26T01:21:31.050Z,5.40
2018-03-26T01:23:58.537Z,5.40
2018-03-26T01:26:26.778Z,5.50
2018-03-26T01:28:54.245Z,5.50
2018-03-26T01:31:21.724Z,5.50
2018-03-26T01:33:49.961Z,5.60
2018-03-26T01:36:18.184Z,5.70
2018-03-26T01:38:45.662Z,5.70
2018-03-26T01:41:13.121Z,5.70
2018-03-26T01:43:40.601Z,5.70
2018-03-26T01:46:08.089Z,5.70
2018-03-26T01:48:35.546Z,5.70
2018-03-26T01:51:03.032Z,5.70
2018-03-26T01:53:31.257Z,5.80
2018-03-26T01:55:58.720Z,5.80
2018-03-26T01:58:26.209Z,5.80
2018-03-26T02:00:53.693Z,5.90
2018-03-26T02:03:21.929Z,6.00
2018-03-26T02:05:49.410Z,6.00
2018-03-26T02:08:17.720Z,6.20
2018-03-26T02:10:45.192Z,6.10
2018-03-26T02:13:12.673Z,6.20
2018-03-26T02:15:40.133Z,6.10
2018-03-26T02:18:07.617Z,6.20
2018-03-26T02:20:35.097Z,6.20
2018-03-26T02:23:02.575Z,6.20
2018-03-26T02:25:30.041Z,6.10
2018-03-26T02:27:57.521Z,6.00
2018-03-26T02:30:25.053Z,6.00
2018-03-26T02:32:52.669Z,6.00
2018-03-26T02:35:20.148Z,5.90
2018-03-26T02:37:48.364Z,5.90
2018-03-26T02:40:15.846Z,5.90
2018-03-26T02:42:43.317Z,5.90
2018-03-26T02:45:10.801Z,5.90
2018-03-26T02:47:39.033Z,5.80
2018-03-26T02:50:06.504Z,5.80
2018-03-26T02:52:33.986Z,5.70
2018-03-26T02:55:02.229Z,5.60
2018-03-26T02:57:29.710Z,5.60
2018-03-26T02:59:57.588Z,5.60
2018-03-26T03:02:26.046Z,5.60
2018-03-26T03:04:53.811Z,5.60
2018-03-26T03:07:21.680Z,5.50
2018-03-26T03:09:49.463Z,5.50
2018-03-26T03:12:19.621Z,5.30
2018-03-26T03:14:47.347Z,5.30
2018-03-26T03:17:14.822Z,5.30
2018-03-26T03:19:42.316Z,5.30
2018-03-26T03:22:09.776Z,5.20
2018-03-26T03:24:37.269Z,5.20
2018-03-26T03:27:04.724Z,5.10
2018-03-26T03:29:32.191Z,5.10
2018-03-26T03:32:00.444Z,5.10
2018-03-26T03:34:27.904Z,5.00
2018-03-26T03:36:55.395Z,5.10
2018-03-26T03:39:23.634Z,5.00
2018-03-26T03:41:51.118Z,5.00
2018-03-26T03:44:18.573Z,5.00
2018-03-26T03:46:46.052Z,5.00
2018-03-26T03:49:14.346Z,5.00
2018-03-26T03:51:41.808Z,5.00
2018-03-26T03:54:09.309Z,5.00
2018-03-26T03:56:36.764Z,4.90
2018-03-26T03:59:04.218Z,4.90
2018-03-26T04:01:31.693Z,4.80
2018-03-26T04:03:59.148Z,4.70
2018-03-26T04:06:26.610Z,4.60
2018-03-26T04:08:54.090Z,4.50
2018-03-26T04:11:21.540Z,4.50
2018-03-26T04:13:49.021Z,4.40
2018-03-26T04:16:16.501Z,4.40
2018-03-26T04:18:43.989Z,4.40
2018-03-26T04:21:11.474Z,4.30
2018-03-26T04:23:38.951Z,4.30
2018-03-26T04:26:07.182Z,4.30
2018-03-26T04:28:34.665Z,4.30
2018-03-26T04:31:02.133Z,4.30
2018-03-26T04:33:30.384Z,4.30
2018-03-26T04:35:57.885Z,4.30
2018-03-26T04:38:25.365Z,4.30
2018-03-26T04:40:52.823Z,4.30
2018-03-26T04:43:20.306Z,4.30
2018-03-26T04:45:47.777Z,4.10
2018-03-26T04:48:15.274Z,4.10
2018-03-26T04:50:42.759Z,4.00
2018-03-26T04:53:10.212Z,3.90
2018-03-26T04:55:37.689Z,3.80
2018-03-26T04:58:05.180Z,3.70
2018-03-26T05:00:32.649Z,3.60
2018-03-26T05:03:00.113Z,3.70
2018-03-26T05:05:28.365Z,3.70
2018-03-26T05:07:55.856Z,3.60
2018-03-26T05:10:23.316Z,3.60
2018-03-26T05:12:50.780Z,3.70
2018-03-26T05:15:18.265Z,3.70
2018-03-26T05:17:45.722Z,3.70
2018-03-26T05:20:13.206Z,3.80
2018-03-26T05:22:40.672Z,3.80
2018-03-26T05:25:08.149Z,3.80
2018-03-26T05:27:35.628Z,3.80
2018-03-26T05:30:03.094Z,3.80
2018-03-26T05:32:30.560Z,3.80
2018-03-26T05:34:58.067Z,3.90
2018-03-26T05:37:25.537Z,4.00
2018-03-26T05:39:53.767Z,3.90
2018-03-26T05:42:21.357Z,3.90
2018-03-26T05:44:48.818Z,4.00
2018-03-26T05:47:17.569Z,4.10
2018-03-26T05:49:45.249Z,4.20
2018-03-26T05:52:12.841Z,4.20
2018-03-26T05:54:40.250Z,4.20
2018-03-26T05:57:07.752Z,4.30
2018-03-26T05:59:35.205Z,4.20
2018-03-26T06:02:03.514Z,4.20
2018-03-26T06:04:30.953Z,4.20
2018-03-26T06:06:59.208Z,4.20
2018-03-26T06:09:26.762Z,4.20
2018-03-26T06:11:54.280Z,4.20
2018-03-26T06:14:21.966Z,4.30
2018-03-26T06:17:01.248Z,4.20
2018-03-26T06:19:29.552Z,4.20
2018-03-26T06:21:57.041Z,4.20
2018-03-26T06:24:24.560Z,4.20
2018-03-26T06:26:51.989Z,4.20
2018-03-26T06:29:19.470Z,4.10
2018-03-26T06:31:46.965Z,4.10
2018-03-26T06:34:14.424Z,4.10
2018-03-26T06:36:46.816Z,4.20
2018-03-26T06:39:14.269Z,4.30
2018-03-26T06:41:41.724Z,4.40
2018-03-26T06:44:09.241Z,4.50
2018-03-26T06:46:36.675Z,4.50
2018-03-26T06:49:04.176Z,4.60
2018-03-26T06:51:31.631Z,4.50
2018-03-26T06:53:59.093Z,4.60
2018-03-26T06:56:26.576Z,4.70
2018-03-26T06:58:54.044Z,4.70
2018-03-26T07:01:21.501Z,4.80
2018-03-26T07:03:48.980Z,4.80
2018-03-26T07:06:16.444Z,4.90
2018-03-26T07:08:43.905Z,5.00
2018-03-26T07:11:11.386Z,5.00
2018-03-26T07:13:38.839Z,5.00
2018-03-26T07:16:06.297Z,4.90
2018-03-26T07:18:33.877Z,4.90
2018-03-26T07:21:01.325Z,5.00
2018-03-26T07:23:28.797Z,5.10
2018-03-26T07:25:56.281Z,5.20
2018-03-26T07:28:23.761Z,5.20
2018-03-26T07:30:51.233Z,5.40
2018-03-26T07:33:18.718Z,5.50
2018-03-26T07:35:46.178Z,5.50
2018-03-26T07:38:13.654Z,5.60
2018-03-26T07:40:41.113Z,5.70
2018-03-26T07:43:08.606Z,5.80
2018-03-26T07:45:36.102Z,5.80
2018-03-26T07:48:03.560Z,5.90
2018-03-26T07:50:31.015Z,6.00
2018-03-26T07:52:58.492Z,6.10
2018-03-26T07:55:25.948Z,6.20
2018-03-26T07:57:53.418Z,6.20
2018-03-26T08:00:20.978Z,6.30
2018-03-26T08:02:48.434Z,6.30
2018-03-26T08:05:15.905Z,6.40
2018-03-26T08:07:44.132Z,6.30
2018-03-26T08:10:11.710Z,6.30
2018-03-26T08:12:39.166Z,6.40
2018-03-26T08:15:06.642Z,6.50
2018-03-26T08:17:34.105Z,6.60
2018-03-26T08:20:01.580Z,6.70
2018-03-26T08:22:29.037Z,6.80
2018-03-26T08:24:56.517Z,6.90
2018-03-26T08:27:23.975Z,6.90
2018-03-26T08:29:51.462Z,6.80
2018-03-26T08:32:18.938Z,6.80
2018-03-26T08:34:46.405Z,6.80
2018-03-26T08:37:13.917Z,6.70
2018-03-26T08:39:41.402Z,6.70
2018-03-26T08:42:08.865Z,6.80
2018-03-26T08:44:36.353Z,6.90
2018-03-26T08:47:03.824Z,7.00
2018-03-26T08:49:31.316Z,7.20
2018-03-26T08:51:58.797Z,7.20
2018-03-26T08:54:26.277Z,7.10
2018-03-26T08:56:53.765Z,7.10
2018-03-26T08:59:21.227Z,7.00
2018-03-26T09:01:48.685Z,7.00
2018-03-26T09:04:16.169Z,7.20
2018-03-26T09:06:44.407Z,7.40
2018-03-26T09:09:11.928Z,7.40
2018-03-26T09:11:39.401Z,7.40
2018-03-26T09:14:06.867Z,7.40
2018-03-26T09:16:34.342Z,7.60
2018-03-26T09:19:01.845Z,7.80
2018-03-26T09:21:29.303Z,8.00
2018-03-26T09:23:56.760Z,8.30
2018-03-26T09:26:24.249Z,8.30
2018-03-26T09:28:51.709Z,8.20
2018-03-26T09:31:19.165Z,8.40
2018-03-26T09:33:46.642Z,8.50
2018-03-26T09:36:14.113Z,8.50
2018-03-26T09:38:41.633Z,8.50
2018-03-26T09:41:09.083Z,8.70
2018-03-26T09:43:37.465Z,8.70
2018-03-26T09:46:04.964Z,8.80
2018-03-26T09:48:32.424Z,8.80
2018-03-26T09:50:59.885Z,8.80
2018-03-26T09:53:27.394Z,8.90
2018-03-26T09:55:54.791Z,9.00
2018-03-26T09:58:22.266Z,9.10
2018-03-26T10:00:49.737Z,9.20
2018-03-26T10:03:25.952Z,9.30
2018-03-26T10:05:53.477Z,9.20
2018-03-26T10:08:21.754Z,9.20
2018-03-26T10:10:49.977Z,9.20
2018-03-26T10:13:17.438Z,9.20
2018-03-26T10:15:44.909Z,9.30
2018-03-26T10:18:12.369Z,9.40
2018-03-26T10:20:39.841Z,9.50
2018-03-26T10:23:07.290Z,9.60
2018-03-26T10:25:34.773Z,9.50
2018-03-26T10:28:02.988Z,9.80
2018-03-26T10:30:30.470Z,9.70
2018-03-26T10:32:57.929Z,10.00
2018-03-26T10:35:25.389Z,10.10
2018-03-26T10:37:52.881Z,10.20
2018-03-26T10:40:21.097Z,10.60
2018-03-26T10:42:48.585Z,10.60
2018-03-26T10:45:16.099Z,10.70
2018-03-26T10:47:43.513Z,10.60
2018-03-26T10:50:11.034Z,10.30
2018-03-26T10:52:38.498Z,10.30
2018-03-26T10:55:05.992Z,10.30
2018-03-26T10:57:33.488Z,10.30
2018-03-26T11:00:00.976Z,10.30
2018-03-26T11:02:28.450Z,10.30
2018-03-26T11:04:55.932Z,10.20
2018-03-26T11:07:23.403Z,10.10
2018-03-26T11:09:50.861Z,10.00
2018-03-26T11:12:18.355Z,9.90
2018-03-26T11:14:45.810Z,9.90
2018-03-26T11:17:13.286Z,9.70
2018-03-26T11:19:40.812Z,9.70
2018-03-26T11:22:09.029Z,9.50
2018-03-26T11:24:36.510Z,9.50
2018-03-26T11:27:03.957Z,9.50
2018-03-26T11:29:31.439Z,9.50
2018-03-26T11:31:58.884Z,9.50
2018-03-26T11:34:26.465Z,9.50
2018-03-26T11:36:53.922Z,9.50
2018-03-26T11:39:21.414Z,9.60
2018-03-26T11:41:48.882Z,9.60
2018-03-26T11:44:16.316Z,9.60
2018-03-26T11:46:43.787Z,9.70
2018-03-26T11:49:11.311Z,9.70
2018-03-26T11:51:38.772Z,9.80
2018-03-26T11:54:06.260Z,9.80
2018-03-26T11:56:33.709Z,10.00
2018-03-26T11:59:01.929Z,10.10
2018-03-26T12:01:30.174Z,10.30
2018-03-26T12:03:57.635Z,10.20
2018-03-26T12:06:25.113Z,10.30
2018-03-26T12:08:52.583Z,10.30
2018-03-26T12:11:20.048Z,10.40
2018-03-26T12:13:47.512Z,10.50
2018-03-26T12:16:14.969Z,10.50
2018-03-26T12:18:42.481Z,10.60
2018-03-26T12:21:09.970Z,10.60
2018-03-26T12:23:49.320Z,10.60
2018-03-26T12:26:16.813Z,10.70
2018-03-26T12:28:56.125Z,10.70
2018-03-26T12:31:23.608Z,10.70
2018-03-26T12:34:02.985Z,10.70
2018-03-26T12:36:30.446Z,10.80
2018-03-26T12:38:57.925Z,10.80
2018-03-26T12:41:25.388Z,10.80
2018-03-26T12:43:52.905Z,10.90
2018-03-26T12:46:32.309Z,11.00
2018-03-26T12:48:59.761Z,11.10
2018-03-26T12:54:26.212Z,11.30
2018-03-26T12:57:05.484Z,11.40
2018-03-26T12:59:32.970Z,11.40
2018-03-26T13:02:12.281Z,11.50
2018-03-26T13:04:39.771Z,11.60
2018-03-26T13:07:07.221Z,11.60
2018-03-26T13:09:35.483Z,11.90
2018-03-26T13:12:02.953Z,11.90
2018-03-26T13:14:30.417Z,12.00
2018-03-26T13:16:57.908Z,12.00
2018-03-26T13:19:25.361Z,12.10
2018-03-26T13:21:52.827Z,12.30
2018-03-26T13:24:20.305Z,12.40
2018-03-26T13:26:48.521Z,12.70
2018-03-26T13:29:15.997Z,12.60
2018-03-26T13:31:43.451Z,12.70
2018-03-26T13:34:10.946Z,12.80
2018-03-26T13:36:39.178Z,14.60
2018-03-26T13:39:06.687Z,14.60
2018-03-26T13:41:34.938Z,18.70
2018-03-26T13:44:02.413Z,18.60
2018-03-26T13:46:30.653Z,21.70
2018-03-26T13:48:58.113Z,21.60
2018-03-26T13:51:25.581Z,21.20
2018-03-26T13:53:53.060Z,21.00
2018-03-26T13:56:21.285Z,23.50
2018-03-26T13:58:48.733Z,23.40
2018-03-26T14:01:16.205Z,25.20
2018-03-26T14:03:43.653Z,27.50
2018-03-26T14:06:11.134Z,30.00
2018-03-26T14:08:50.281Z,32.00
2018-03-26T14:11:29.656Z,33.20
2018-03-26T14:14:08.948Z,33.40
2018-03-26T14:16:48.332Z,34.30
2018-03-26T14:19:15.814Z,34.90
2018-03-26T14:21:43.330Z,35.80
2018-03-26T14:24:11.594Z,37.40
2018-03-26T14:26:39.072Z,37.30
2018-03-26T14:29:07.374Z,36.30
2018-03-26T14:31:34.895Z,36.30
2018-03-26T14:34:02.293Z,35.70
2018-03-26T14:36:29.767Z,33.60
2018-03-26T14:38:57.311Z,31.20
2018-03-26T14:41:24.757Z,29.20
2018-03-26T14:43:52.253Z,27.50
2018-03-26T14:46:19.705Z,26.60
2018-03-26T14:48:47.185Z,26.30
2018-03-26T14:51:14.630Z,26.70
2018-03-26T14:53:42.090Z,26.20
2018-03-26T14:56:09.572Z,25.10
2018-03-26T14:58:37.064Z,24.30
2018-03-26T15:01:04.541Z,23.90
2018-03-26T15:03:32.024Z,23.20
2018-03-26T15:05:59.493Z,22.30
2018-03-26T15:08:26.972Z,21.30
2018-03-26T15:10:54.489Z,20.40
2018-03-26T15:13:22.803Z,18.90
2018-03-26T15:15:50.285Z,18.80
2018-03-26T15:18:18.510Z,17.70
2018-03-26T15:20:45.996Z,17.60
2018-03-26T15:23:13.474Z,17.10
2018-03-26T15:25:41.727Z,16.40
2018-03-26T15:28:09.198Z,16.30
2018-03-26T15:30:37.441Z,15.80
2018-03-26T15:33:04.913Z,15.80
2018-03-26T15:35:32.400Z,15.70
2018-03-26T15:38:00.653Z,15.30
2018-03-26T15:40:28.106Z,15.30
2018-03-26T15:42:55.555Z,15.10
2018-03-26T15:45:23.086Z,14.90
2018-03-26T15:47:50.541Z,14.70
2018-03-26T15:50:18.101Z,14.60
2018-03-26T15:52:45.554Z,14.50
2018-03-26T15:55:13.039Z,14.30
2018-03-26T15:57:40.489Z,14.20
2018-03-26T16:00:07.995Z,14.20
2018-03-26T16:02:41.207Z,14.20
2018-03-26T16:05:08.673Z,14.00
2018-03-26T16:07:36.120Z,13.90
2018-03-26T16:10:03.628Z,13.80
2018-03-26T16:12:31.088Z,13.70
2018-03-26T16:14:58.594Z,13.60
2018-03-26T16:17:26.827Z,13.50
2018-03-26T16:19:54.388Z,13.50
2018-03-26T16:22:21.861Z,13.40
2018-03-26T16:24:49.336Z,13.40
2018-03-26T16:27:16.818Z,13.40
2018-03-26T16:29:44.272Z,13.30
2018-03-26T16:32:11.916Z,13.30
2018-03-26T16:34:39.593Z,13.30
2018-03-26T16:37:07.092Z,13.20
2018-03-26T16:39:34.609Z,13.20
2018-03-26T16:45:01.843Z,13.00
2018-03-26T16:47:29.478Z,13.00
2018-03-26T16:49:56.973Z,13.00
2018-03-26T16:52:24.421Z,13.00
2018-03-26T16:54:52.212Z,13.00
2018-03-26T16:57:19.717Z,13.00
2018-03-26T16:59:47.195Z,12.80
2018-03-26T17:02:15.492Z,12.60
2018-03-26T17:04:43.238Z,12.50
2018-03-26T17:07:10.960Z,12.40
2018-03-26T17:09:38.548Z,12.30
2018-03-26T17:12:06.235Z,12.10
2018-03-26T17:14:34.479Z,11.90
2018-03-26T17:17:02.361Z,11.90
2018-03-26T17:19:29.999Z,11.90
2018-03-26T17:21:57.686Z,11.80
2018-03-26T17:24:25.148Z,11.80
2018-03-26T17:26:52.706Z,11.80
2018-03-26T17:29:20.390Z,11.80
2018-03-26T17:31:47.883Z,11.80
2018-03-26T17:34:16.302Z,11.70
2018-03-26T17:36:43.992Z,11.70
2018-03-26T17:39:11.564Z,11.70
2018-03-26T17:41:39.041Z,11.70
2018-03-26T17:44:07.277Z,11.70
2018-03-26T17:46:34.740Z,11.70
2018-03-26T17:49:02.262Z,11.40
2018-03-26T17:51:29.729Z,11.10
2018-03-26T17:53:57.193Z,11.00
2018-03-26T17:56:24.680Z,10.90
2018-03-26T17:58:52.178Z,10.80
2018-03-26T18:01:19.633Z,10.80
2018-03-26T18:03:47.109Z,10.70
2018-03-26T18:06:14.573Z,10.60
2018-03-26T18:08:42.114Z,10.50
2018-03-26T18:11:09.573Z,10.40
2018-03-26T18:13:37.545Z,10.30
2018-03-26T18:16:05.000Z,10.20
2018-03-26T18:18:32.485Z,10.20
2018-03-26T18:20:59.948Z,10.10
2018-03-26T18:23:29.170Z,10.00
2018-03-26T18:25:56.652Z,9.90
2018-03-26T18:28:24.476Z,9.80
2018-03-26T18:30:52.776Z,9.70
2018-03-26T18:33:20.566Z,9.70
2018-03-26T18:35:48.838Z,9.50
2018-03-26T18:38:17.146Z,9.40
2018-03-26T18:40:44.644Z,9.40
2018-03-26T18:43:12.147Z,9.40
2018-03-26T18:45:39.615Z,9.40
2018-03-26T18:48:07.060Z,9.30
2018-03-26T18:50:35.320Z,9.30
2018-03-26T18:53:02.848Z,9.30
2018-03-26T18:55:30.322Z,9.30
2018-03-26T18:57:57.766Z,9.20
2018-03-26T19:00:25.272Z,9.20
2018-03-26T19:02:53.528Z,9.20
2018-03-26T19:05:20.992Z,9.20
2018-03-26T19:07:49.208Z,9.20
2018-03-26T19:10:16.686Z,9.10
2018-03-26T19:12:44.136Z,9.10
2018-03-26T19:15:11.612Z,9.10
2018-03-26T19:17:39.144Z,9.00
2018-03-26T19:20:06.642Z,9.00
2018-03-26T19:22:34.275Z,8.90
2018-03-26T19:25:01.751Z,8.90
2018-03-26T19:27:29.272Z,8.90
2018-03-26T19:29:56.848Z,8.90
2018-03-26T19:32:24.319Z,9.00
2018-03-26T19:34:51.798Z,9.00
2018-03-26T19:37:19.273Z,9.00
2018-03-26T19:39:46.740Z,9.00
2018-03-26T19:42:14.239Z,8.80
2018-03-26T19:44:42.546Z,8.50
2018-03-26T19:47:10.092Z,8.50
2018-03-26T19:49:37.778Z,8.50
2018-03-26T19:52:05.286Z,8.50
2018-03-26T19:54:32.831Z,8.50
2018-03-26T19:57:00.296Z,8.50
2018-03-26T19:59:28.017Z,8.50
2018-03-26T20:01:55.619Z,8.50
2018-03-26T20:04:23.124Z,8.50
2018-03-26T20:06:50.736Z,8.50
2018-03-26T20:09:19.044Z,8.40
2018-03-26T20:11:46.557Z,8.30
2018-03-26T20:14:14.257Z,8.30
2018-03-26T20:16:41.951Z,8.30
2018-03-26T20:19:09.460Z,8.20
2018-03-26T20:21:36.971Z,8.10
2018-03-26T20:24:04.475Z,8.00
2018-03-26T20:26:31.946Z,7.90
2018-03-26T20:28:59.418Z,7.90
2018-03-26T20:31:26.882Z,7.80
2018-03-26T20:33:54.361Z,7.80
2018-03-26T20:36:21.842Z,7.80
2018-03-26T20:38:49.290Z,7.80
2018-03-26T20:41:16.763Z,7.80
2018-03-26T20:43:44.218Z,7.80
2018-03-26T20:46:11.684Z,7.80
2018-03-26T20:48:39.153Z,7.80
2018-03-26T20:51:07.388Z,7.90
2018-03-26T20:53:34.846Z,8.00
2018-03-26T20:56:02.321Z,8.00
2018-03-26T20:58:29.896Z,8.10
2018-03-26T21:00:58.149Z,8.20
2018-03-26T21:03:25.609Z,8.20
2018-03-26T21:05:53.080Z,8.30
2018-03-26T21:08:21.109Z,8.40
2018-03-26T21:10:48.584Z,8.50
2018-03-26T21:13:16.060Z,8.50
2018-03-26T21:15:43.520Z,8.50
2018-03-26T21:18:11.005Z,8.50
2018-03-26T21:20:39.223Z,8.50
2018-03-26T21:23:06.715Z,8.50
2018-03-26T21:25:34.155Z,8.50
2018-03-26T21:28:01.609Z,8.50
2018-03-26T21:30:29.085Z,8.50
2018-03-26T21:32:56.543Z,8.50
2018-03-26T21:35:24.033Z,8.50
2018-03-26T21:37:52.241Z,8.50
2018-03-26T21:40:19.708Z,8.40
2018-03-26T21:42:47.153Z,8.50
2018-03-26T21:45:14.633Z,8.50
2018-03-26T21:47:42.155Z,8.50
2018-03-26T21:50:09.602Z,8.50
2018-03-26T21:52:37.084Z,8.50
2018-03-26T21:55:04.569Z,8.50
2018-03-26T21:57:32.023Z,8.50
2018-03-26T21:59:59.464Z,8.50
2018-03-26T22:02:26.936Z,8.40
2018-03-26T22:04:54.408Z,8.40
2018-03-26T22:07:21.860Z,8.30
2018-03-26T22:09:49.323Z,8.30
2018-03-26T22:12:16.809Z,8.20
2018-03-26T22:14:44.281Z,8.10
2018-03-26T22:17:11.734Z,8.10
2018-03-26T22:19:39.992Z,7.90
2018-03-26T22:22:07.448Z,7.90
2018-03-26T22:24:34.898Z,7.90
2018-03-26T22:27:02.377Z,7.80
2018-03-26T22:29:29.849Z,7.70
2018-03-26T22:31:57.301Z,7.70
2018-03-26T22:34:25.558Z,7.50
2018-03-26T22:36:53.021Z,7.40
2018-03-26T22:39:20.473Z,7.40
2018-03-26T22:41:47.962Z,7.30
2018-03-26T22:44:15.413Z,7.20
2018-03-26T22:46:42.893Z,7.10
2018-03-26T22:49:10.409Z,7.10
2018-03-26T22:51:37.881Z,7.00
2018-03-26T22:54:06.113Z,6.90
2018-03-26T22:56:33.590Z,6.90
2018-03-26T22:59:01.074Z,6.90
2018-03-26T23:01:29.292Z,6.80
2018-03-26T23:03:56.757Z,6.80
2018-03-26T23:06:24.220Z,6.70
2018-03-26T23:08:51.704Z,6.70
2018-03-26T23:11:19.169Z,6.70
2018-03-26T23:13:46.656Z,6.70
2018-03-26T23:16:14.105Z,6.60
2018-03-26T23:18:41.625Z,6.50
2018-03-26T23:21:09.136Z,6.50
2018-03-26T23:23:36.603Z,6.40
2018-03-26T23:26:04.052Z,6.40
2018-03-26T23:28:31.541Z,6.40
2018-03-26T23:30:58.997Z,6.30
2018-03-26T23:33:26.452Z,6.30
2018-03-26T23:35:54.700Z,6.30
2018-03-26T23:38:22.185Z,6.20
2018-03-26T23:40:49.657Z,6.20
2018-03-26T23:43:17.892Z,6.10
2018-03-26T23:45:45.373Z,6.10
2018-03-26T23:48:12.884Z,6.10
2018-03-26T23:50:41.133Z,6.00
2018-03-26T23:53:08.618Z,6.00
2018-03-26T23:55:36.836Z,5.90
2018-03-26T23:58:04.320Z,5.90
